createdAt,value
2023-02-25T00:01:36.873Z,14.43
2023-02-25T00:04:04.045Z,13.35
2023-02-25T00:06:31.031Z,14.00
2023-02-25T00:08:57.872Z,13.27
2023-02-25T00:11:27.556Z,12.75
2023-02-25T00:13:55.498Z,13.80
2023-02-25T00:16:24.292Z,13.60
2023-02-25T00:18:55.427Z,13.00
2023-02-25T00:21:23.133Z,13.55
2023-02-25T00:23:51.631Z,13.05
2023-02-25T00:26:19.064Z,13.20
2023-02-25T00:28:46.490Z,12.48
2023-02-25T00:31:17.444Z,11.02
2023-02-25T00:33:44.998Z,12.38
2023-02-25T00:36:15.485Z,11.40
2023-02-25T00:38:42.536Z,12.82
2023-02-25T00:41:14.041Z,12.32
2023-02-25T00:43:43.534Z,11.60
2023-02-25T00:46:13.477Z,12.07
2023-02-25T00:48:40.636Z,12.82
2023-02-25T00:51:09.219Z,11.15
2023-02-25T00:53:37.826Z,11.15
2023-02-25T00:56:06.700Z,10.23
2023-02-25T00:58:38.116Z,11.05
2023-02-25T01:01:06.858Z,11.27
2023-02-25T01:03:33.703Z,11.40
2023-02-25T01:06:00.642Z,10.18
2023-02-25T01:08:28.624Z,12.00
2023-02-25T01:10:55.807Z,10.75
2023-02-25T01:13:22.676Z,11.48
2023-02-25T01:15:49.614Z,11.10
2023-02-25T01:18:18.228Z,11.70
2023-02-25T01:20:46.510Z,13.05
2023-02-25T01:23:13.774Z,14.20
2023-02-25T01:25:41.192Z,13.23
2023-02-25T01:28:08.350Z,13.95
2023-02-25T01:30:38.201Z,13.00
2023-02-25T01:33:05.103Z,14.70
2023-02-25T01:35:32.049Z,15.27
2023-02-25T01:37:58.865Z,14.25
2023-02-25T01:40:25.771Z,14.98
2023-02-25T01:42:52.555Z,15.85
2023-02-25T01:45:19.474Z,15.85
2023-02-25T01:47:51.681Z,15.98
2023-02-25T01:50:22.224Z,15.70
2023-02-25T01:52:51.178Z,15.40
2023-02-25T01:55:18.644Z,16.85
2023-02-25T01:57:46.184Z,16.98
2023-02-25T02:00:16.339Z,15.85
2023-02-25T02:02:49.392Z,15.60
2023-02-25T02:05:16.726Z,15.32
2023-02-25T02:07:44.013Z,14.57
2023-02-25T02:10:11.552Z,15.43
2023-02-25T02:12:43.867Z,16.50
2023-02-25T02:15:13.895Z,15.75
2023-02-25T02:17:50.073Z,14.43
2023-02-25T02:20:23.891Z,15.13
2023-02-25T02:23:30.355Z,14.52
2023-02-25T02:26:15.981Z,13.43
2023-02-25T02:29:20.116Z,13.45
2023-02-25T02:32:02.434Z,14.07
2023-02-25T02:34:51.244Z,13.70
2023-02-25T02:37:26.911Z,13.30
2023-02-25T02:40:09.467Z,14.07
2023-02-25T02:42:46.493Z,14.88
2023-02-25T02:45:26.006Z,13.63
2023-02-25T02:48:01.971Z,14.45
2023-02-25T02:50:29.464Z,14.20
2023-02-25T02:53:00.246Z,13.75
2023-02-25T02:55:39.158Z,14.88
2023-02-25T02:58:18.420Z,13.35
2023-02-25T03:00:49.721Z,14.75
2023-02-25T03:03:22.344Z,14.10
2023-02-25T03:05:52.768Z,15.00
2023-02-25T03:08:28.472Z,15.00
2023-02-25T03:10:58.891Z,14.48
2023-02-25T03:13:25.981Z,14.95
2023-02-25T03:15:54.623Z,14.80
2023-02-25T03:18:39.072Z,14.73
2023-02-25T03:21:15.046Z,14.95
2023-02-25T03:23:46.297Z,15.30
2023-02-25T03:26:28.614Z,14.80
2023-02-25T03:29:00.668Z,14.30
2023-02-25T03:31:43.728Z,12.70
2023-02-25T03:34:21.357Z,14.35
2023-02-25T03:36:57.054Z,15.35
2023-02-25T03:39:31.269Z,14.23
2023-02-25T03:42:02.047Z,13.90
2023-02-25T03:44:34.364Z,14.20
2023-02-25T03:47:02.756Z,15.02
2023-02-25T03:49:50.604Z,14.93
2023-02-25T03:52:21.121Z,14.65
2023-02-25T03:54:52.266Z,15.40
2023-02-25T03:57:21.128Z,14.38
2023-02-25T03:59:49.045Z,13.95
2023-02-25T04:02:17.931Z,14.63
2023-02-25T04:04:44.892Z,14.55
2023-02-25T04:07:11.793Z,13.55
2023-02-25T04:09:39.827Z,14.73
2023-02-25T04:12:08.234Z,16.17
2023-02-25T04:14:35.071Z,14.55
2023-02-25T04:17:04.604Z,14.23
2023-02-25T04:19:31.581Z,15.30
2023-02-25T04:22:00.536Z,14.23
2023-02-25T04:24:27.563Z,15.15
2023-02-25T04:26:58.528Z,15.30
2023-02-25T04:29:25.790Z,14.65
2023-02-25T04:31:52.777Z,14.52
2023-02-25T04:34:19.940Z,13.85
2023-02-25T04:36:47.530Z,14.07
2023-02-25T04:39:16.323Z,13.82
2023-02-25T04:41:43.398Z,15.00
2023-02-25T04:44:10.549Z,15.18
2023-02-25T04:46:42.481Z,14.65
2023-02-25T04:49:09.779Z,14.25
2023-02-25T04:51:38.885Z,15.10
2023-02-25T04:54:06.527Z,13.63
2023-02-25T04:56:33.434Z,15.38
2023-02-25T04:59:00.536Z,13.48
2023-02-25T05:01:28.063Z,14.23
2023-02-25T05:03:57.076Z,13.82
2023-02-25T05:06:27.891Z,13.55
2023-02-25T05:08:57.639Z,14.38
2023-02-25T05:11:26.663Z,14.43
2023-02-25T05:13:57.186Z,13.90
2023-02-25T05:16:25.662Z,15.32
2023-02-25T05:18:53.310Z,13.55
2023-02-25T05:21:23.340Z,13.55
2023-02-25T05:23:53.189Z,12.95
2023-02-25T05:26:23.577Z,14.45
2023-02-25T05:28:52.298Z,13.32
2023-02-25T05:31:19.327Z,13.65
2023-02-25T05:33:46.377Z,12.35
2023-02-25T05:36:15.960Z,13.48
2023-02-25T05:38:43.166Z,12.10
2023-02-25T05:41:11.385Z,12.23
2023-02-25T05:43:39.329Z,13.48
2023-02-25T05:46:11.798Z,12.00
2023-02-25T05:48:41.555Z,12.25
2023-02-25T05:51:14.188Z,11.95
2023-02-25T05:53:42.177Z,11.70
2023-02-25T05:56:12.279Z,12.05
2023-02-25T05:58:39.195Z,11.15
2023-02-25T06:01:14.898Z,10.07
2023-02-25T06:03:43.318Z,11.02
2023-02-25T06:06:15.034Z,10.95
2023-02-25T06:08:44.806Z,10.13
2023-02-25T06:11:15.870Z,11.20
2023-02-25T06:13:42.711Z,11.10
2023-02-25T06:16:09.602Z,11.02
2023-02-25T06:18:39.774Z,10.60
2023-02-25T06:21:09.557Z,10.75
2023-02-25T06:23:39.058Z,9.75
2023-02-25T06:26:08.031Z,10.93
2023-02-25T06:28:36.180Z,10.73
2023-02-25T06:31:03.418Z,9.90
2023-02-25T06:33:31.666Z,9.40
2023-02-25T06:35:59.137Z,9.43
2023-02-25T06:38:26.194Z,9.43
2023-02-25T06:40:53.091Z,10.15
2023-02-25T06:43:19.927Z,10.65
2023-02-25T06:45:46.732Z,10.45
2023-02-25T06:48:13.644Z,10.10
2023-02-25T06:50:41.667Z,7.88
2023-02-25T06:53:09.578Z,8.27
2023-02-25T06:55:39.962Z,7.25
2023-02-25T06:58:07.077Z,7.55
2023-02-25T07:00:33.947Z,7.15
2023-02-25T07:03:03.093Z,6.35
2023-02-25T07:05:30.209Z,5.88
2023-02-25T07:07:57.318Z,5.70
2023-02-25T07:10:24.557Z,6.18
2023-02-25T07:12:52.536Z,6.30
2023-02-25T07:15:21.172Z,6.53
2023-02-25T07:17:48.792Z,7.40
2023-02-25T07:20:16.055Z,6.28
2023-02-25T07:22:43.558Z,5.72
2023-02-25T07:25:14.157Z,5.30
2023-02-25T07:27:44.751Z,5.75
2023-02-25T07:30:13.219Z,5.38
2023-02-25T07:32:44.339Z,6.25
2023-02-25T07:35:11.535Z,5.20
2023-02-25T07:37:39.492Z,4.18
2023-02-25T07:40:13.427Z,4.97
2023-02-25T07:42:41.280Z,4.53
2023-02-25T07:45:10.035Z,5.05
2023-02-25T07:47:37.992Z,5.85
2023-02-25T07:50:12.314Z,7.15
2023-02-25T07:52:39.838Z,7.43
2023-02-25T07:55:07.550Z,7.07
2023-02-25T07:57:35.700Z,6.03
2023-02-25T08:00:04.639Z,5.97
2023-02-25T08:02:39.404Z,5.35
2023-02-25T08:05:07.765Z,6.30
2023-02-25T08:07:35.014Z,6.18
2023-02-25T08:10:02.117Z,6.10
2023-02-25T08:12:28.918Z,6.22
2023-02-25T08:14:57.408Z,6.05
2023-02-25T08:17:24.185Z,5.32
2023-02-25T08:19:52.304Z,5.70
2023-02-25T08:22:19.169Z,4.90
2023-02-25T08:24:45.979Z,3.70
2023-02-25T08:27:12.893Z,4.05
2023-02-25T08:29:39.678Z,3.90
2023-02-25T08:32:06.830Z,3.63
2023-02-25T08:34:34.243Z,3.78
2023-02-25T08:37:01.191Z,3.17
2023-02-25T08:39:29.316Z,3.33
2023-02-25T08:41:56.259Z,2.42
2023-02-25T08:44:23.197Z,2.58
2023-02-25T08:46:50.188Z,2.33
2023-02-25T08:49:17.147Z,2.20
2023-02-25T08:51:44.916Z,2.25
2023-02-25T08:54:14.220Z,2.05
2023-02-25T08:56:44.245Z,3.47
2023-02-25T08:59:14.174Z,2.75
2023-02-25T09:01:44.876Z,2.60
2023-02-25T09:04:23.386Z,2.17
2023-02-25T09:06:51.925Z,2.15
2023-02-25T09:09:20.642Z,2.40
2023-02-25T09:11:48.964Z,2.47
2023-02-25T09:14:16.088Z,2.08
2023-02-25T09:16:43.144Z,3.33
2023-02-25T09:19:13.008Z,2.22
2023-02-25T09:21:43.272Z,1.98
2023-02-25T09:24:10.491Z,1.90
2023-02-25T09:26:37.348Z,2.20
2023-02-25T09:29:05.850Z,1.98
2023-02-25T09:31:34.637Z,2.10
2023-02-25T09:34:04.845Z,3.10
2023-02-25T09:36:34.636Z,2.60
2023-02-25T09:39:02.543Z,2.75
2023-02-25T09:41:45.119Z,2.60
2023-02-25T09:44:30.352Z,2.67
2023-02-25T09:47:04.906Z,3.17
2023-02-25T09:49:42.789Z,3.22
2023-02-25T09:52:43.865Z,3.40
2023-02-25T09:55:22.754Z,3.55
2023-02-25T09:58:11.615Z,3.22
2023-02-25T10:00:55.490Z,3.03
2023-02-25T10:03:39.154Z,2.97
2023-02-25T10:06:21.448Z,3.00
2023-02-25T10:09:06.240Z,3.22
2023-02-25T10:11:42.048Z,2.40
2023-02-25T10:14:35.327Z,2.35
2023-02-25T10:17:31.070Z,2.42
2023-02-25T10:20:35.872Z,2.70
2023-02-25T10:23:30.445Z,2.63
2023-02-25T10:26:04.361Z,2.03
2023-02-25T10:28:32.458Z,2.85
2023-02-25T10:31:14.443Z,2.55
2023-02-25T10:33:44.407Z,4.50
2023-02-25T10:36:31.081Z,2.85
2023-02-25T10:38:58.085Z,2.17
2023-02-25T10:41:30.504Z,2.70
2023-02-25T10:43:58.051Z,1.73
2023-02-25T10:46:52.749Z,1.55
2023-02-25T10:49:21.782Z,1.63
2023-02-25T10:52:03.054Z,1.10
2023-02-25T10:54:51.518Z,1.45
2023-02-25T10:57:25.951Z,1.98
2023-02-25T11:00:01.688Z,1.45
2023-02-25T11:02:31.573Z,1.15
2023-02-25T11:04:58.601Z,1.40
2023-02-25T11:07:30.416Z,1.70
2023-02-25T11:10:15.126Z,1.52
2023-02-25T11:12:57.072Z,1.30
2023-02-25T11:15:45.682Z,1.30
2023-02-25T11:18:19.362Z,1.55
2023-02-25T11:20:56.585Z,1.88
2023-02-25T11:23:35.845Z,1.80
2023-02-25T11:26:03.930Z,1.65
2023-02-25T11:28:38.533Z,1.90
2023-02-25T11:31:19.241Z,2.35
2023-02-25T11:33:57.337Z,1.70
2023-02-25T11:36:29.415Z,1.65
2023-02-25T11:39:22.588Z,2.70
2023-02-25T11:42:10.771Z,2.25
2023-02-25T11:44:43.510Z,1.83
2023-02-25T11:47:14.186Z,1.42
2023-02-25T11:49:58.380Z,1.15
2023-02-25T11:52:37.722Z,1.67
2023-02-25T11:55:23.591Z,2.00
2023-02-25T11:58:16.676Z,2.65
2023-02-25T12:00:59.484Z,2.10
2023-02-25T12:04:07.681Z,3.90
2023-02-25T12:07:02.116Z,2.22
2023-02-25T12:09:50.083Z,2.45
2023-02-25T12:12:48.441Z,2.53
2023-02-25T12:15:55.304Z,4.10
2023-02-25T12:18:41.066Z,2.25
2023-02-25T12:21:23.601Z,2.72
2023-02-25T12:24:13.726Z,2.40
2023-02-25T12:27:34.156Z,2.50
2023-02-25T12:30:22.964Z,2.65
2023-02-25T12:33:11.703Z,2.90
2023-02-25T12:36:16.167Z,2.00
2023-02-25T12:38:49.207Z,1.92
2023-02-25T12:41:32.676Z,3.13
2023-02-25T12:44:21.005Z,2.50
2023-02-25T12:46:53.853Z,2.67
2023-02-25T12:49:46.797Z,2.22
2023-02-25T12:52:28.552Z,2.78
2023-02-25T12:55:20.243Z,3.90
2023-02-25T12:58:08.486Z,4.28
2023-02-25T13:01:13.755Z,3.35
2023-02-25T13:04:28.312Z,2.10
2023-02-25T13:07:02.855Z,2.75
2023-02-25T13:09:51.162Z,3.15
2023-02-25T13:12:45.709Z,2.85
2023-02-25T13:15:20.678Z,2.92
2023-02-25T13:18:00.826Z,3.10
2023-02-25T13:20:44.102Z,2.75
2023-02-25T13:23:41.125Z,2.67
2023-02-25T13:26:33.724Z,2.05
2023-02-25T13:29:03.738Z,3.13
2023-02-25T13:31:51.769Z,3.05
2023-02-25T13:34:36.022Z,2.97
2023-02-25T13:37:29.701Z,2.75
2023-02-25T13:40:28.268Z,2.13
2023-02-25T13:43:16.484Z,2.40
2023-02-25T13:46:12.100Z,2.58
2023-02-25T13:48:42.034Z,2.65
2023-02-25T13:51:46.401Z,2.30
2023-02-25T13:54:28.204Z,2.10
2023-02-25T13:56:58.550Z,2.20
2023-02-25T14:00:03.759Z,2.35
2023-02-25T14:02:42.241Z,1.40
2023-02-25T14:05:25.676Z,1.52
2023-02-25T14:07:58.650Z,2.00
2023-02-25T14:10:41.157Z,1.50
2023-02-25T14:13:33.068Z,1.80
2023-02-25T14:16:36.575Z,1.65
2023-02-25T14:19:18.002Z,2.47
2023-02-25T14:21:57.696Z,2.13
2023-02-25T14:24:41.308Z,2.00
2023-02-25T14:27:28.969Z,1.98
2023-02-25T14:30:12.109Z,1.63
2023-02-25T14:32:46.445Z,2.10
2023-02-25T14:35:18.007Z,1.85
2023-02-25T14:38:13.098Z,1.70
2023-02-25T14:41:07.380Z,1.40
2023-02-25T14:43:36.297Z,1.38
2023-02-25T14:46:22.076Z,1.85
2023-02-25T14:49:12.457Z,1.67
2023-02-25T14:52:16.314Z,1.50
2023-02-25T14:55:01.967Z,1.30
2023-02-25T14:58:02.850Z,2.22
2023-02-25T15:00:47.692Z,3.22
2023-02-25T15:03:42.334Z,2.47
2023-02-25T15:06:28.872Z,1.95
2023-02-25T15:09:01.565Z,2.42
2023-02-25T15:11:56.422Z,2.10
2023-02-25T15:14:42.776Z,2.45
2023-02-25T15:17:47.736Z,2.60
2023-02-25T15:20:34.108Z,2.42
2023-02-25T15:23:16.776Z,2.03
2023-02-25T15:25:55.724Z,2.80
2023-02-25T15:28:31.637Z,2.13
2023-02-25T15:31:01.611Z,1.98
2023-02-25T15:34:23.974Z,2.42
2023-02-25T15:37:23.320Z,1.85
2023-02-25T15:39:56.220Z,2.72
2023-02-25T15:42:42.196Z,2.00
2023-02-25T15:45:28.995Z,2.67
2023-02-25T15:48:07.959Z,1.90
2023-02-25T15:50:44.122Z,2.10
2023-02-25T15:53:35.839Z,1.83
2023-02-25T15:56:05.669Z,1.98
2023-02-25T15:58:32.457Z,2.90
2023-02-25T16:01:05.295Z,2.85
2023-02-25T16:03:32.116Z,2.40
2023-02-25T16:06:13.977Z,2.13
2023-02-25T16:08:52.635Z,2.22
2023-02-25T16:11:25.277Z,2.22
2023-02-25T16:13:54.861Z,2.10
2023-02-25T16:16:23.242Z,2.10
2023-02-25T16:18:53.038Z,3.40
2023-02-25T16:21:44.416Z,2.20
2023-02-25T16:24:13.000Z,2.33
2023-02-25T16:26:45.099Z,2.55
2023-02-25T16:29:11.862Z,2.10
2023-02-25T16:32:08.118Z,2.22
2023-02-25T16:34:57.251Z,2.50
2023-02-25T16:38:02.967Z,2.88
2023-02-25T16:40:35.434Z,2.90
2023-02-25T16:43:02.421Z,3.38
2023-02-25T16:45:36.118Z,3.88
2023-02-25T16:48:08.119Z,2.70
2023-02-25T16:50:36.095Z,2.40
2023-02-25T16:53:03.970Z,3.20
2023-02-25T16:55:40.014Z,2.92
2023-02-25T16:58:22.866Z,2.90
2023-02-25T17:01:02.286Z,2.67
2023-02-25T17:03:40.317Z,3.83
2023-02-25T17:06:14.947Z,3.40
2023-02-25T17:08:47.823Z,4.35
2023-02-25T17:11:19.141Z,5.40
2023-02-25T17:13:50.177Z,4.72
2023-02-25T17:16:43.537Z,6.20
2023-02-25T17:19:12.330Z,4.38
2023-02-25T17:21:44.346Z,5.15
2023-02-25T17:24:18.047Z,5.07
2023-02-25T17:26:48.449Z,5.28
2023-02-25T17:29:17.469Z,5.20
2023-02-25T17:31:49.257Z,5.28
2023-02-25T17:34:36.302Z,5.28
2023-02-25T17:37:07.003Z,3.90
2023-02-25T17:39:35.161Z,4.20
2023-02-25T17:42:02.155Z,4.60
2023-02-25T17:44:39.071Z,5.13
2023-02-25T17:47:09.715Z,4.82
2023-02-25T17:49:37.820Z,4.50
2023-02-25T17:52:20.604Z,5.00
2023-02-25T17:54:52.590Z,6.95
2023-02-25T17:57:24.382Z,6.32
2023-02-25T17:59:57.032Z,6.47
2023-02-25T18:02:30.668Z,4.13
2023-02-25T18:05:22.170Z,6.30
2023-02-25T18:07:58.074Z,10.38
2023-02-25T18:10:33.971Z,7.53
2023-02-25T18:13:04.559Z,6.72
2023-02-25T18:15:36.044Z,5.80
2023-02-25T18:18:05.021Z,5.65
2023-02-25T18:20:40.956Z,6.88
2023-02-25T18:23:13.862Z,7.57
2023-02-25T18:25:45.645Z,8.45
2023-02-25T18:28:21.562Z,5.45
2023-02-25T18:30:49.797Z,6.50
2023-02-25T18:33:18.114Z,6.68
2023-02-25T18:35:47.203Z,7.35
2023-02-25T18:38:23.295Z,7.40
2023-02-25T18:40:51.793Z,5.88
2023-02-25T18:43:21.412Z,5.03
2023-02-25T18:45:48.880Z,4.30
2023-02-25T18:48:15.800Z,4.07
2023-02-25T18:50:44.555Z,4.55
2023-02-25T18:53:17.127Z,4.80
2023-02-25T18:55:44.030Z,4.82
2023-02-25T18:58:14.156Z,5.30
2023-02-25T19:00:42.498Z,4.65
2023-02-25T19:03:18.756Z,4.68
2023-02-25T19:05:45.694Z,4.43
2023-02-25T19:08:13.953Z,5.13
2023-02-25T19:10:41.836Z,5.32
2023-02-25T19:13:15.070Z,3.75
2023-02-25T19:15:41.868Z,3.63
2023-02-25T19:18:13.645Z,3.17
2023-02-25T19:20:42.533Z,3.90
2023-02-25T19:23:12.637Z,4.00
2023-02-25T19:25:40.648Z,4.00
2023-02-25T19:28:09.184Z,5.40
2023-02-25T19:30:43.140Z,4.90
2023-02-25T19:33:11.639Z,4.68
2023-02-25T19:35:41.145Z,4.47
2023-02-25T19:38:11.225Z,4.65
2023-02-25T19:40:38.328Z,4.22
2023-02-25T19:43:05.842Z,4.10
2023-02-25T19:45:33.582Z,3.10
2023-02-25T19:48:00.737Z,3.40
2023-02-25T19:50:28.105Z,3.22
2023-02-25T19:52:55.722Z,4.05
2023-02-25T19:55:23.064Z,4.13
2023-02-25T19:57:50.150Z,7.68
2023-02-25T20:00:22.733Z,4.28
2023-02-25T20:02:51.263Z,4.30
2023-02-25T20:05:18.695Z,3.45
2023-02-25T20:07:45.578Z,5.13
2023-02-25T20:10:13.884Z,4.63
2023-02-25T20:12:42.808Z,5.05
2023-02-25T20:15:11.368Z,3.85
2023-02-25T20:17:40.053Z,4.20
2023-02-25T20:20:08.521Z,4.03
2023-02-25T20:22:36.044Z,4.28
2023-02-25T20:25:03.976Z,4.00
2023-02-25T20:27:30.839Z,3.88
2023-02-25T20:29:57.749Z,4.38
2023-02-25T20:32:25.085Z,4.20
2023-02-25T20:34:52.054Z,4.40
2023-02-25T20:37:22.603Z,4.32
2023-02-25T20:39:53.858Z,3.88
2023-02-25T20:42:24.687Z,4.28
2023-02-25T20:44:53.070Z,4.05
2023-02-25T20:47:26.239Z,3.85
2023-02-25T20:49:55.128Z,3.78
2023-02-25T20:52:22.153Z,4.22
2023-02-25T20:54:52.446Z,4.40
2023-02-25T20:57:22.344Z,3.67
2023-02-25T20:59:49.909Z,4.35
2023-02-25T21:02:17.653Z,3.67
2023-02-25T21:04:45.412Z,3.92
2023-02-25T21:07:12.993Z,4.10
2023-02-25T21:09:40.347Z,3.60
2023-02-25T21:12:09.059Z,3.97
2023-02-25T21:14:36.006Z,4.03
2023-02-25T21:17:03.127Z,4.30
2023-02-25T21:19:30.519Z,3.53
2023-02-25T21:21:57.564Z,3.35
2023-02-25T21:24:24.514Z,4.00
2023-02-25T21:26:51.396Z,3.58
2023-02-25T21:29:18.263Z,3.13
2023-02-25T21:31:45.697Z,3.03
2023-02-25T21:34:14.218Z,3.38
2023-02-25T21:36:41.992Z,4.13
2023-02-25T21:39:09.587Z,3.47
2023-02-25T21:41:38.085Z,3.38
2023-02-25T21:44:05.272Z,3.70
2023-02-25T21:46:32.657Z,3.67
2023-02-25T21:49:00.000Z,3.40
2023-02-25T21:51:28.463Z,3.78
2023-02-25T21:53:57.265Z,3.05
2023-02-25T21:56:25.170Z,3.33
2023-02-25T21:58:59.891Z,2.85
2023-02-25T22:01:30.131Z,3.38
2023-02-25T22:03:57.784Z,3.30
2023-02-25T22:06:26.363Z,4.00
2023-02-25T22:08:54.490Z,3.30
2023-02-25T22:11:27.616Z,3.10
2023-02-25T22:13:57.006Z,3.05
2023-02-25T22:16:25.025Z,3.42
2023-02-25T22:18:52.470Z,3.38
2023-02-25T22:21:22.341Z,3.17
2023-02-25T22:23:51.368Z,4.10
2023-02-25T22:26:21.086Z,4.10
2023-02-25T22:28:48.713Z,3.30
2023-02-25T22:31:17.671Z,3.40
2023-02-25T22:33:45.541Z,3.88
2023-02-25T22:36:15.210Z,3.40
2023-02-25T22:38:43.907Z,4.20
2023-02-25T22:41:14.166Z,3.15
2023-02-25T22:43:41.146Z,3.90
2023-02-25T22:46:13.571Z,3.22
2023-02-25T22:48:42.316Z,3.72
2023-02-25T22:51:09.824Z,2.90
2023-02-25T22:53:38.478Z,3.22
2023-02-25T22:56:09.038Z,3.13
2023-02-25T22:58:39.054Z,3.05
2023-02-25T23:01:07.310Z,2.85
2023-02-25T23:03:34.254Z,2.80
2023-02-25T23:06:01.171Z,3.00
2023-02-25T23:08:28.211Z,2.83
2023-02-25T23:10:55.269Z,2.67
2023-02-25T23:13:22.300Z,3.15
2023-02-25T23:15:49.650Z,3.10
2023-02-25T23:18:17.065Z,2.85
2023-02-25T23:20:44.532Z,3.28
2023-02-25T23:23:17.439Z,2.78
2023-02-25T23:25:51.450Z,3.13
2023-02-25T23:28:18.584Z,3.17
2023-02-25T23:30:45.583Z,2.80
2023-02-25T23:33:13.247Z,2.78
2023-02-25T23:35:42.065Z,3.10
2023-02-25T23:38:09.563Z,2.30
2023-02-25T23:40:36.461Z,2.53
2023-02-25T23:43:03.359Z,3.10
2023-02-25T23:45:31.126Z,3.08
2023-02-25T23:47:58.548Z,3.50
2023-02-25T23:50:27.128Z,2.50
2023-02-25T23:52:54.577Z,2.50
2023-02-25T23:55:22.552Z,2.40
2023-02-25T23:57:49.493Z,2.53
